sensor_id;sensor_type;location;lat;lon;timestamp;P1;durP1;ratioP1;P2;durP2;ratioP2
72501;SDS011;60524;49.874;8.652;2022-08-19T00:01:47;14.38;;;10.63;;
72501;SDS011;60524;49.874;8.652;2022-08-19T00:04:15;15.43;;;11.25;;
72501;SDS011;60524;49.874;8.652;2022-08-19T00:06:41;17.02;;;11.20;;
72501;SDS011;60524;49.874;8.652;2022-08-19T00:09:08;15.52;;;11.13;;
72501;SDS011;60524;49.874;8.652;2022-08-19T00:11:36;15.88;;;11.95;;
72501;SDS011;60524;49.874;8.652;2022-08-19T00:14:02;27.27;;;11.85;;
72501;SDS011;60524;49.874;8.652;2022-08-19T00:16:28;15.73;;;11.98;;
72501;SDS011;60524;49.874;8.652;2022-08-19T00:18:54;14.88;;;10.88;;
72501;SDS011;60524;49.874;8.652;2022-08-19T00:21:20;16.90;;;10.93;;
72501;SDS011;60524;49.874;8.652;2022-08-19T00:23:46;16.75;;;11.00;;
72501;SDS011;60524;49.874;8.652;2022-08-19T00:26:12;15.80;;;11.15;;
72501;SDS011;60524;49.874;8.652;2022-08-19T00:28:37;14.55;;;10.68;;
72501;SDS011;60524;49.874;8.652;2022-08-19T00:31:04;17.83;;;11.07;;
72501;SDS011;60524;49.874;8.652;2022-08-19T00:33:30;17.17;;;10.02;;
72501;SDS011;60524;49.874;8.652;2022-08-19T00:35:59;14.98;;;11.18;;
72501;SDS011;60524;49.874;8.652;2022-08-19T00:38:25;19.55;;;10.85;;
72501;SDS011;60524;49.874;8.652;2022-08-19T00:40:51;16.27;;;10.35;;
72501;SDS011;60524;49.874;8.652;2022-08-19T00:43:21;17.13;;;11.18;;
72501;SDS011;60524;49.874;8.652;2022-08-19T00:45:48;16.55;;;10.32;;
72501;SDS011;60524;49.874;8.652;2022-08-19T00:48:14;14.02;;;10.35;;
72501;SDS011;60524;49.874;8.652;2022-08-19T00:50:41;15.25;;;10.63;;
72501;SDS011;60524;49.874;8.652;2022-08-19T00:53:07;15.57;;;11.23;;
72501;SDS011;60524;49.874;8.652;2022-08-19T00:55:34;16.92;;;11.25;;
72501;SDS011;60524;49.874;8.652;2022-08-19T00:58:00;13.33;;;10.13;;
72501;SDS011;60524;49.874;8.652;2022-08-19T01:00:28;16.17;;;11.65;;
72501;SDS011;60524;49.874;8.652;2022-08-19T01:02:55;14.55;;;10.68;;
72501;SDS011;60524;49.874;8.652;2022-08-19T01:05:22;14.77;;;10.32;;
72501;SDS011;60524;49.874;8.652;2022-08-19T01:07:49;13.75;;;9.95;;
72501;SDS011;60524;49.874;8.652;2022-08-19T01:10:16;17.73;;;10.52;;
72501;SDS011;60524;49.874;8.652;2022-08-19T01:12:44;18.65;;;10.85;;
72501;SDS011;60524;49.874;8.652;2022-08-19T01:15:11;15.38;;;10.38;;
72501;SDS011;60524;49.874;8.652;2022-08-19T01:17:38;13.20;;;9.40;;
72501;SDS011;60524;49.874;8.652;2022-08-19T01:20:05;16.45;;;10.30;;
72501;SDS011;60524;49.874;8.652;2022-08-19T01:22:36;17.35;;;9.75;;
72501;SDS011;60524;49.874;8.652;2022-08-19T01:25:05;14.77;;;10.10;;
72501;SDS011;60524;49.874;8.652;2022-08-19T01:27:41;14.95;;;9.85;;
72501;SDS011;60524;49.874;8.652;2022-08-19T01:30:09;14.65;;;9.82;;
72501;SDS011;60524;49.874;8.652;2022-08-19T01:32:36;15.07;;;9.57;;
72501;SDS011;60524;49.874;8.652;2022-08-19T01:35:02;14.80;;;10.07;;
72501;SDS011;60524;49.874;8.652;2022-08-19T01:37:28;13.75;;;10.27;;
72501;SDS011;60524;49.874;8.652;2022-08-19T01:39:55;14.15;;;10.73;;
72501;SDS011;60524;49.874;8.652;2022-08-19T01:42:20;16.90;;;10.65;;
72501;SDS011;60524;49.874;8.652;2022-08-19T01:44:47;16.20;;;10.35;;
72501;SDS011;60524;49.874;8.652;2022-08-19T01:47:12;15.63;;;10.37;;
72501;SDS011;60524;49.874;8.652;2022-08-19T01:49:37;17.63;;;9.93;;
72501;SDS011;60524;49.874;8.652;2022-08-19T01:52:04;14.73;;;10.23;;
72501;SDS011;60524;49.874;8.652;2022-08-19T01:54:30;15.20;;;10.88;;
72501;SDS011;60524;49.874;8.652;2022-08-19T01:57:07;15.50;;;10.73;;
72501;SDS011;60524;49.874;8.652;2022-08-19T01:59:34;14.52;;;10.52;;
72501;SDS011;60524;49.874;8.652;2022-08-19T02:02:01;16.60;;;10.30;;
72501;SDS011;60524;49.874;8.652;2022-08-19T02:04:28;16.40;;;10.65;;
72501;SDS011;60524;49.874;8.652;2022-08-19T02:06:53;16.30;;;10.80;;
72501;SDS011;60524;49.874;8.652;2022-08-19T02:09:18;15.70;;;10.70;;
72501;SDS011;60524;49.874;8.652;2022-08-19T02:11:44;15.50;;;10.93;;
72501;SDS011;60524;49.874;8.652;2022-08-19T02:14:09;13.95;;;10.20;;
72501;SDS011;60524;49.874;8.652;2022-08-19T02:16:35;16.17;;;10.00;;
72501;SDS011;60524;49.874;8.652;2022-08-19T02:19:01;15.02;;;10.13;;
72501;SDS011;60524;49.874;8.652;2022-08-19T02:21:27;14.75;;;9.88;;
72501;SDS011;60524;49.874;8.652;2022-08-19T02:23:53;14.98;;;10.52;;
72501;SDS011;60524;49.874;8.652;2022-08-19T02:26:19;18.40;;;10.90;;
72501;SDS011;60524;49.874;8.652;2022-08-19T02:28:45;14.90;;;10.02;;
72501;SDS011;60524;49.874;8.652;2022-08-19T02:31:11;15.48;;;10.63;;
72501;SDS011;60524;49.874;8.652;2022-08-19T02:33:39;13.85;;;10.38;;
72501;SDS011;60524;49.874;8.652;2022-08-19T02:36:05;16.80;;;10.85;;
72501;SDS011;60524;49.874;8.652;2022-08-19T02:38:32;16.02;;;10.38;;
72501;SDS011;60524;49.874;8.652;2022-08-19T02:41:04;16.42;;;9.98;;
72501;SDS011;60524;49.874;8.652;2022-08-19T02:43:33;16.77;;;10.20;;
72501;SDS011;60524;49.874;8.652;2022-08-19T02:46:25;15.57;;;10.35;;
72501;SDS011;60524;49.874;8.652;2022-08-19T02:48:50;12.98;;;9.10;;
72501;SDS011;60524;49.874;8.652;2022-08-19T02:51:18;13.85;;;9.73;;
72501;SDS011;60524;49.874;8.652;2022-08-19T02:53:44;13.60;;;9.45;;
72501;SDS011;60524;49.874;8.652;2022-08-19T02:56:10;12.35;;;9.40;;
72501;SDS011;60524;49.874;8.652;2022-08-19T02:58:35;14.77;;;10.23;;
72501;SDS011;60524;49.874;8.652;2022-08-19T03:01:00;12.80;;;9.33;;
72501;SDS011;60524;49.874;8.652;2022-08-19T03:03:26;15.40;;;10.10;;
72501;SDS011;60524;49.874;8.652;2022-08-19T03:05:51;13.55;;;10.07;;
72501;SDS011;60524;49.874;8.652;2022-08-19T03:08:40;12.77;;;9.70;;
72501;SDS011;60524;49.874;8.652;2022-08-19T03:11:13;14.73;;;10.15;;
72501;SDS011;60524;49.874;8.652;2022-08-19T03:13:39;13.45;;;9.43;;
72501;SDS011;60524;49.874;8.652;2022-08-19T03:16:05;16.03;;;9.93;;
72501;SDS011;60524;49.874;8.652;2022-08-19T03:18:30;15.65;;;10.55;;
72501;SDS011;60524;49.874;8.652;2022-08-19T03:20:56;15.73;;;10.27;;
72501;SDS011;60524;49.874;8.652;2022-08-19T03:23:22;13.68;;;9.45;;
72501;SDS011;60524;49.874;8.652;2022-08-19T03:25:48;13.55;;;9.57;;
72501;SDS011;60524;49.874;8.652;2022-08-19T03:28:17;13.20;;;9.68;;
72501;SDS011;60524;49.874;8.652;2022-08-19T03:30:43;15.75;;;10.07;;
72501;SDS011;60524;49.874;8.652;2022-08-19T03:33:21;13.68;;;9.93;;
72501;SDS011;60524;49.874;8.652;2022-08-19T03:35:58;17.48;;;10.50;;
72501;SDS011;60524;49.874;8.652;2022-08-19T03:38:29;15.82;;;10.05;;
72501;SDS011;60524;49.874;8.652;2022-08-19T03:40:54;14.95;;;9.38;;
72501;SDS011;60524;49.874;8.652;2022-08-19T03:43:20;14.27;;;10.00;;
72501;SDS011;60524;49.874;8.652;2022-08-19T03:45:45;15.05;;;9.35;;
72501;SDS011;60524;49.874;8.652;2022-08-19T03:48:11;12.23;;;8.83;;
72501;SDS011;60524;49.874;8.652;2022-08-19T03:50:39;12.40;;;8.63;;
72501;SDS011;60524;49.874;8.652;2022-08-19T03:53:05;15.70;;;10.05;;
72501;SDS011;60524;49.874;8.652;2022-08-19T03:55:32;16.10;;;9.60;;
72501;SDS011;60524;49.874;8.652;2022-08-19T03:57:57;16.00;;;10.27;;
72501;SDS011;60524;49.874;8.652;2022-08-19T04:00:23;13.95;;;9.65;;
72501;SDS011;60524;49.874;8.652;2022-08-19T04:02:48;12.97;;;9.30;;
72501;SDS011;60524;49.874;8.652;2022-08-19T04:05:14;14.97;;;10.33;;
72501;SDS011;60524;49.874;8.652;2022-08-19T04:07:40;18.67;;;10.68;;
72501;SDS011;60524;49.874;8.652;2022-08-19T04:10:05;16.92;;;10.35;;
72501;SDS011;60524;49.874;8.652;2022-08-19T04:12:31;17.98;;;11.43;;
72501;SDS011;60524;49.874;8.652;2022-08-19T04:14:56;15.98;;;11.18;;
72501;SDS011;60524;49.874;8.652;2022-08-19T04:17:23;20.33;;;11.35;;
72501;SDS011;60524;49.874;8.652;2022-08-19T04:19:48;17.05;;;9.90;;
72501;SDS011;60524;49.874;8.652;2022-08-19T04:22:14;14.27;;;10.40;;
72501;SDS011;60524;49.874;8.652;2022-08-19T04:24:39;17.03;;;10.50;;
72501;SDS011;60524;49.874;8.652;2022-08-19T04:27:05;16.33;;;10.60;;
72501;SDS011;60524;49.874;8.652;2022-08-19T04:29:31;17.35;;;9.48;;
72501;SDS011;60524;49.874;8.652;2022-08-19T04:31:57;17.92;;;10.20;;
72501;SDS011;60524;49.874;8.652;2022-08-19T04:34:26;18.80;;;10.55;;
72501;SDS011;60524;49.874;8.652;2022-08-19T04:36:53;14.75;;;10.32;;
72501;SDS011;60524;49.874;8.652;2022-08-19T04:39:22;15.77;;;9.93;;
72501;SDS011;60524;49.874;8.652;2022-08-19T04:42:10;17.67;;;11.45;;
72501;SDS011;60524;49.874;8.652;2022-08-19T04:44:54;17.70;;;11.65;;
72501;SDS011;60524;49.874;8.652;2022-08-19T04:47:19;20.05;;;11.90;;
72501;SDS011;60524;49.874;8.652;2022-08-19T04:49:44;16.60;;;11.17;;
72501;SDS011;60524;49.874;8.652;2022-08-19T04:52:10;18.47;;;11.33;;
72501;SDS011;60524;49.874;8.652;2022-08-19T04:54:35;17.98;;;11.57;;
72501;SDS011;60524;49.874;8.652;2022-08-19T04:57:00;17.37;;;11.40;;
72501;SDS011;60524;49.874;8.652;2022-08-19T04:59:26;16.43;;;11.40;;
72501;SDS011;60524;49.874;8.652;2022-08-19T05:01:51;17.30;;;11.10;;
72501;SDS011;60524;49.874;8.652;2022-08-19T05:04:19;16.97;;;9.90;;
72501;SDS011;60524;49.874;8.652;2022-08-19T05:06:46;19.23;;;10.88;;
72501;SDS011;60524;49.874;8.652;2022-08-19T05:09:13;15.50;;;10.55;;
72501;SDS011;60524;49.874;8.652;2022-08-19T05:11:39;18.80;;;10.82;;
72501;SDS011;60524;49.874;8.652;2022-08-19T05:14:04;16.50;;;10.60;;
72501;SDS011;60524;49.874;8.652;2022-08-19T05:16:33;15.80;;;10.65;;
72501;SDS011;60524;49.874;8.652;2022-08-19T05:18:59;16.00;;;10.40;;
72501;SDS011;60524;49.874;8.652;2022-08-19T05:21:43;20.15;;;10.55;;
72501;SDS011;60524;49.874;8.652;2022-08-19T05:24:27;15.93;;;9.43;;
72501;SDS011;60524;49.874;8.652;2022-08-19T05:26:53;19.52;;;11.73;;
72501;SDS011;60524;49.874;8.652;2022-08-19T05:29:21;16.15;;;10.15;;
72501;SDS011;60524;49.874;8.652;2022-08-19T05:31:48;20.30;;;11.27;;
72501;SDS011;60524;49.874;8.652;2022-08-19T05:34:14;19.73;;;11.35;;
72501;SDS011;60524;49.874;8.652;2022-08-19T05:36:42;18.67;;;10.50;;
72501;SDS011;60524;49.874;8.652;2022-08-19T05:39:10;15.38;;;10.40;;
72501;SDS011;60524;49.874;8.652;2022-08-19T05:41:41;18.60;;;11.57;;
72501;SDS011;60524;49.874;8.652;2022-08-19T05:44:10;14.95;;;10.55;;
72501;SDS011;60524;49.874;8.652;2022-08-19T05:46:36;15.00;;;11.00;;
72501;SDS011;60524;49.874;8.652;2022-08-19T05:49:03;16.27;;;9.38;;
72501;SDS011;60524;49.874;8.652;2022-08-19T05:51:29;17.00;;;10.77;;
72501;SDS011;60524;49.874;8.652;2022-08-19T05:53:55;17.15;;;11.38;;
72501;SDS011;60524;49.874;8.652;2022-08-19T05:56:20;14.63;;;10.40;;
72501;SDS011;60524;49.874;8.652;2022-08-19T05:58:46;18.20;;;10.87;;
72501;SDS011;60524;49.874;8.652;2022-08-19T06:01:12;18.13;;;10.40;;
72501;SDS011;60524;49.874;8.652;2022-08-19T06:03:40;17.38;;;11.35;;
72501;SDS011;60524;49.874;8.652;2022-08-19T06:06:06;15.52;;;10.38;;
72501;SDS011;60524;49.874;8.652;2022-08-19T06:08:33;21.45;;;11.02;;
72501;SDS011;60524;49.874;8.652;2022-08-19T06:11:11;16.48;;;10.15;;
72501;SDS011;60524;49.874;8.652;2022-08-19T06:14:00;17.38;;;10.20;;
72501;SDS011;60524;49.874;8.652;2022-08-19T06:16:29;14.73;;;9.15;;
72501;SDS011;60524;49.874;8.652;2022-08-19T06:18:56;14.35;;;9.55;;
72501;SDS011;60524;49.874;8.652;2022-08-19T06:21:25;14.07;;;9.30;;
72501;SDS011;60524;49.874;8.652;2022-08-19T06:23:52;14.07;;;9.02;;
72501;SDS011;60524;49.874;8.652;2022-08-19T06:26:19;17.45;;;9.63;;
72501;SDS011;60524;49.874;8.652;2022-08-19T06:28:45;15.75;;;8.60;;
72501;SDS011;60524;49.874;8.652;2022-08-19T06:31:15;10.95;;;8.23;;
72501;SDS011;60524;49.874;8.652;2022-08-19T06:33:43;11.63;;;8.02;;
72501;SDS011;60524;49.874;8.652;2022-08-19T06:36:22;10.85;;;7.68;;
72501;SDS011;60524;49.874;8.652;2022-08-19T06:38:55;13.93;;;8.00;;
72501;SDS011;60524;49.874;8.652;2022-08-19T06:41:24;12.48;;;8.15;;
72501;SDS011;60524;49.874;8.652;2022-08-19T06:43:50;11.10;;;7.60;;
72501;SDS011;60524;49.874;8.652;2022-08-19T06:46:16;13.07;;;8.27;;
72501;SDS011;60524;49.874;8.652;2022-08-19T06:48:43;12.73;;;7.97;;
72501;SDS011;60524;49.874;8.652;2022-08-19T06:51:09;9.65;;;7.57;;
72501;SDS011;60524;49.874;8.652;2022-08-19T06:53:34;15.50;;;7.85;;
72501;SDS011;60524;49.874;8.652;2022-08-19T06:56:00;15.13;;;7.40;;
72501;SDS011;60524;49.874;8.652;2022-08-19T07:00:57;11.77;;;7.22;;
72501;SDS011;60524;49.874;8.652;2022-08-19T07:03:33;12.93;;;7.32;;
72501;SDS011;60524;49.874;8.652;2022-08-19T07:06:08;9.85;;;6.60;;
72501;SDS011;60524;49.874;8.652;2022-08-19T07:08:35;11.38;;;6.93;;
72501;SDS011;60524;49.874;8.652;2022-08-19T07:11:02;8.88;;;6.63;;
72501;SDS011;60524;49.874;8.652;2022-08-19T07:13:31;11.63;;;8.05;;
72501;SDS011;60524;49.874;8.652;2022-08-19T07:16:02;10.70;;;6.15;;
72501;SDS011;60524;49.874;8.652;2022-08-19T07:18:36;11.20;;;6.45;;
72501;SDS011;60524;49.874;8.652;2022-08-19T07:21:03;14.13;;;6.95;;
72501;SDS011;60524;49.874;8.652;2022-08-19T07:23:30;8.63;;;5.43;;
72501;SDS011;60524;49.874;8.652;2022-08-19T07:25:56;10.13;;;6.07;;
72501;SDS011;60524;49.874;8.652;2022-08-19T07:28:21;7.93;;;5.68;;
72501;SDS011;60524;49.874;8.652;2022-08-19T07:30:47;8.98;;;5.65;;
72501;SDS011;60524;49.874;8.652;2022-08-19T07:35:41;12.05;;;5.78;;
72501;SDS011;60524;49.874;8.652;2022-08-19T07:38:07;8.88;;;5.85;;
72501;SDS011;60524;49.874;8.652;2022-08-19T07:40:32;11.05;;;6.13;;
72501;SDS011;60524;49.874;8.652;2022-08-19T07:42:58;9.68;;;5.88;;
72501;SDS011;60524;49.874;8.652;2022-08-19T07:45:23;17.83;;;6.97;;
72501;SDS011;60524;49.874;8.652;2022-08-19T07:47:48;9.30;;;6.55;;
72501;SDS011;60524;49.874;8.652;2022-08-19T07:50:14;9.27;;;5.72;;
72501;SDS011;60524;49.874;8.652;2022-08-19T07:52:40;8.45;;;5.30;;
72501;SDS011;60524;49.874;8.652;2022-08-19T07:55:06;8.25;;;6.35;;
72501;SDS011;60524;49.874;8.652;2022-08-19T07:57:33;9.15;;;6.28;;
72501;SDS011;60524;49.874;8.652;2022-08-19T07:59:58;7.85;;;5.70;;
72501;SDS011;60524;49.874;8.652;2022-08-19T08:02:24;7.63;;;5.72;;
72501;SDS011;60524;49.874;8.652;2022-08-19T08:04:49;8.50;;;5.70;;
72501;SDS011;60524;49.874;8.652;2022-08-19T08:07:33;8.60;;;5.70;;
72501;SDS011;60524;49.874;8.652;2022-08-19T08:10:17;8.55;;;5.47;;
72501;SDS011;60524;49.874;8.652;2022-08-19T08:12:42;11.65;;;5.97;;
72501;SDS011;60524;49.874;8.652;2022-08-19T08:15:11;9.00;;;4.90;;
72501;SDS011;60524;49.874;8.652;2022-08-19T08:17:41;7.22;;;4.95;;
72501;SDS011;60524;49.874;8.652;2022-08-19T08:20:07;11.93;;;5.13;;
72501;SDS011;60524;49.874;8.652;2022-08-19T08:22:33;9.77;;;4.50;;
72501;SDS011;60524;49.874;8.652;2022-08-19T08:25:18;9.23;;;5.13;;
72501;SDS011;60524;49.874;8.652;2022-08-19T08:27:48;6.38;;;4.00;;
72501;SDS011;60524;49.874;8.652;2022-08-19T08:30:19;5.55;;;3.28;;
72501;SDS011;60524;49.874;8.652;2022-08-19T08:32:47;6.97;;;4.03;;
72501;SDS011;60524;49.874;8.652;2022-08-19T08:35:14;6.18;;;3.45;;
72501;SDS011;60524;49.874;8.652;2022-08-19T08:37:43;6.80;;;2.95;;
72501;SDS011;60524;49.874;8.652;2022-08-19T08:42:49;4.95;;;3.05;;
72501;SDS011;60524;49.874;8.652;2022-08-19T08:45:20;5.13;;;3.20;;
72501;SDS011;60524;49.874;8.652;2022-08-19T08:47:48;8.10;;;3.88;;
72501;SDS011;60524;49.874;8.652;2022-08-19T08:50:39;5.22;;;2.90;;
72501;SDS011;60524;49.874;8.652;2022-08-19T08:53:05;5.68;;;3.13;;
72501;SDS011;60524;49.874;8.652;2022-08-19T08:55:31;8.48;;;3.38;;
72501;SDS011;60524;49.874;8.652;2022-08-19T09:01:17;5.95;;;3.03;;
72501;SDS011;60524;49.874;8.652;2022-08-19T09:03:44;3.53;;;3.05;;
72501;SDS011;60524;49.874;8.652;2022-08-19T09:09:00;4.55;;;3.00;;
72501;SDS011;60524;49.874;8.652;2022-08-19T09:17:25;6.75;;;3.05;;
72501;SDS011;60524;49.874;8.652;2022-08-19T09:22:29;5.13;;;3.03;;
72501;SDS011;60524;49.874;8.652;2022-08-19T09:24:54;4.00;;;2.80;;
72501;SDS011;60524;49.874;8.652;2022-08-19T09:27:20;5.20;;;3.13;;
72501;SDS011;60524;49.874;8.652;2022-08-19T09:29:46;4.03;;;2.75;;
72501;SDS011;60524;49.874;8.652;2022-08-19T09:32:13;4.65;;;3.20;;
72501;SDS011;60524;49.874;8.652;2022-08-19T09:34:39;10.57;;;3.85;;
72501;SDS011;60524;49.874;8.652;2022-08-19T09:37:04;11.93;;;4.17;;
72501;SDS011;60524;49.874;8.652;2022-08-19T09:39:30;5.70;;;3.53;;
72501;SDS011;60524;49.874;8.652;2022-08-19T09:41:55;5.07;;;3.00;;
72501;SDS011;60524;49.874;8.652;2022-08-19T09:44:21;7.53;;;3.72;;
72501;SDS011;60524;49.874;8.652;2022-08-19T09:46:46;5.93;;;4.15;;
72501;SDS011;60524;49.874;8.652;2022-08-19T09:49:12;7.80;;;4.22;;
72501;SDS011;60524;49.874;8.652;2022-08-19T09:51:37;5.20;;;3.13;;
72501;SDS011;60524;49.874;8.652;2022-08-19T09:54:03;6.00;;;3.33;;
72501;SDS011;60524;49.874;8.652;2022-08-19T09:56:28;7.05;;;3.78;;
72501;SDS011;60524;49.874;8.652;2022-08-19T09:58:55;7.53;;;4.53;;
72501;SDS011;60524;49.874;8.652;2022-08-19T10:01:24;6.07;;;4.25;;
72501;SDS011;60524;49.874;8.652;2022-08-19T10:03:51;5.25;;;3.63;;
72501;SDS011;60524;49.874;8.652;2022-08-19T10:06:19;6.03;;;3.65;;
72501;SDS011;60524;49.874;8.652;2022-08-19T10:11:11;6.10;;;4.30;;
72501;SDS011;60524;49.874;8.652;2022-08-19T10:13:37;5.40;;;3.90;;
72501;SDS011;60524;49.874;8.652;2022-08-19T10:16:04;4.90;;;3.73;;
72501;SDS011;60524;49.874;8.652;2022-08-19T10:18:31;8.18;;;4.15;;
72501;SDS011;60524;49.874;8.652;2022-08-19T10:21:19;9.65;;;5.00;;
72501;SDS011;60524;49.874;8.652;2022-08-19T10:23:49;10.07;;;4.70;;
72501;SDS011;60524;49.874;8.652;2022-08-19T10:26:18;7.97;;;4.30;;
72501;SDS011;60524;49.874;8.652;2022-08-19T10:28:46;5.35;;;4.10;;
72501;SDS011;60524;49.874;8.652;2022-08-19T10:31:16;9.95;;;4.35;;
72501;SDS011;60524;49.874;8.652;2022-08-19T10:33:47;5.80;;;4.72;;
72501;SDS011;60524;49.874;8.652;2022-08-19T10:36:14;7.03;;;5.07;;
72501;SDS011;60524;49.874;8.652;2022-08-19T10:38:42;6.57;;;3.70;;
72501;SDS011;60524;49.874;8.652;2022-08-19T10:41:14;5.47;;;4.10;;
72501;SDS011;60524;49.874;8.652;2022-08-19T10:43:41;7.20;;;4.43;;
72501;SDS011;60524;49.874;8.652;2022-08-19T10:46:08;11.70;;;4.65;;
72501;SDS011;60524;49.874;8.652;2022-08-19T10:48:34;13.73;;;5.22;;
72501;SDS011;60524;49.874;8.652;2022-08-19T10:51:00;6.88;;;4.88;;
72501;SDS011;60524;49.874;8.652;2022-08-19T10:53:45;19.73;;;6.78;;
72501;SDS011;60524;49.874;8.652;2022-08-19T10:56:10;7.73;;;5.47;;
72501;SDS011;60524;49.874;8.652;2022-08-19T10:58:54;23.55;;;7.57;;
72501;SDS011;60524;49.874;8.652;2022-08-19T11:03:46;12.03;;;5.40;;
72501;SDS011;60524;49.874;8.652;2022-08-19T11:06:12;12.43;;;5.03;;
72501;SDS011;60524;49.874;8.652;2022-08-19T11:08:37;8.37;;;4.60;;
72501;SDS011;60524;49.874;8.652;2022-08-19T11:11:03;11.75;;;4.60;;
72501;SDS011;60524;49.874;8.652;2022-08-19T11:13:33;6.38;;;4.75;;
72501;SDS011;60524;49.874;8.652;2022-08-19T11:16:00;11.23;;;4.88;;
72501;SDS011;60524;49.874;8.652;2022-08-19T11:18:28;9.68;;;4.78;;
72501;SDS011;60524;49.874;8.652;2022-08-19T11:20:53;5.57;;;4.45;;
72501;SDS011;60524;49.874;8.652;2022-08-19T11:23:19;8.77;;;4.70;;
72501;SDS011;60524;49.874;8.652;2022-08-19T11:25:45;14.07;;;4.43;;
72501;SDS011;60524;49.874;8.652;2022-08-19T11:28:10;5.50;;;3.10;;
72501;SDS011;60524;49.874;8.652;2022-08-19T11:30:37;7.47;;;3.78;;
72501;SDS011;60524;49.874;8.652;2022-08-19T11:33:03;6.47;;;4.40;;
72501;SDS011;60524;49.874;8.652;2022-08-19T11:35:28;22.97;;;4.57;;
72501;SDS011;60524;49.874;8.652;2022-08-19T11:37:54;10.35;;;4.53;;
72501;SDS011;60524;49.874;8.652;2022-08-19T11:42:46;5.33;;;3.67;;
72501;SDS011;60524;49.874;8.652;2022-08-19T11:45:25;8.95;;;4.00;;
72501;SDS011;60524;49.874;8.652;2022-08-19T11:47:51;9.15;;;4.25;;
72501;SDS011;60524;49.874;8.652;2022-08-19T11:50:17;8.30;;;4.40;;
72501;SDS011;60524;49.874;8.652;2022-08-19T11:52:42;7.10;;;4.80;;
72501;SDS011;60524;49.874;8.652;2022-08-19T11:55:10;5.22;;;4.18;;
72501;SDS011;60524;49.874;8.652;2022-08-19T11:57:39;6.88;;;4.90;;
72501;SDS011;60524;49.874;8.652;2022-08-19T12:00:06;7.45;;;5.38;;
72501;SDS011;60524;49.874;8.652;2022-08-19T12:02:33;7.95;;;5.05;;
72501;SDS011;60524;49.874;8.652;2022-08-19T12:04:59;8.80;;;5.35;;
72501;SDS011;60524;49.874;8.652;2022-08-19T12:07:27;7.05;;;5.32;;
72501;SDS011;60524;49.874;8.652;2022-08-19T12:09:54;11.52;;;5.57;;
72501;SDS011;60524;49.874;8.652;2022-08-19T12:12:19;9.63;;;6.18;;
72501;SDS011;60524;49.874;8.652;2022-08-19T12:14:44;7.32;;;5.47;;
72501;SDS011;60524;49.874;8.652;2022-08-19T12:17:11;6.90;;;5.70;;
72501;SDS011;60524;49.874;8.652;2022-08-19T12:19:38;11.18;;;6.03;;
72501;SDS011;60524;49.874;8.652;2022-08-19T12:22:04;7.38;;;5.60;;
72501;SDS011;60524;49.874;8.652;2022-08-19T12:24:31;7.57;;;5.63;;
72501;SDS011;60524;49.874;8.652;2022-08-19T12:26:57;7.05;;;5.57;;
72501;SDS011;60524;49.874;8.652;2022-08-19T12:29:24;7.00;;;5.40;;
72501;SDS011;60524;49.874;8.652;2022-08-19T12:31:54;8.07;;;5.00;;
72501;SDS011;60524;49.874;8.652;2022-08-19T12:34:26;5.35;;;4.68;;
72501;SDS011;60524;49.874;8.652;2022-08-19T12:36:55;6.00;;;5.40;;
72501;SDS011;60524;49.874;8.652;2022-08-19T12:41:46;5.97;;;5.30;;
72501;SDS011;60524;49.874;8.652;2022-08-19T12:44:14;6.53;;;5.15;;
72501;SDS011;60524;49.874;8.652;2022-08-19T12:46:39;6.80;;;4.15;;
72501;SDS011;60524;49.874;8.652;2022-08-19T12:49:05;7.70;;;4.20;;
72501;SDS011;60524;49.874;8.652;2022-08-19T12:51:30;4.87;;;3.53;;
72501;SDS011;60524;49.874;8.652;2022-08-19T12:53:56;3.75;;;3.38;;
72501;SDS011;60524;49.874;8.652;2022-08-19T12:56:22;4.95;;;3.60;;
72501;SDS011;60524;49.874;8.652;2022-08-19T12:58:47;5.57;;;3.42;;
72501;SDS011;60524;49.874;8.652;2022-08-19T13:01:13;4.67;;;3.67;;
72501;SDS011;60524;49.874;8.652;2022-08-19T13:06:05;5.45;;;2.80;;
72501;SDS011;60524;49.874;8.652;2022-08-19T13:08:31;4.85;;;3.00;;
72501;SDS011;60524;49.874;8.652;2022-08-19T13:10:57;4.45;;;2.95;;
72501;SDS011;60524;49.874;8.652;2022-08-19T13:13:23;6.47;;;3.28;;
72501;SDS011;60524;49.874;8.652;2022-08-19T13:15:51;5.75;;;3.33;;
72501;SDS011;60524;49.874;8.652;2022-08-19T13:18:16;4.60;;;3.17;;
72501;SDS011;60524;49.874;8.652;2022-08-19T13:20:42;4.32;;;2.97;;
72501;SDS011;60524;49.874;8.652;2022-08-19T13:23:08;5.55;;;3.03;;
72501;SDS011;60524;49.874;8.652;2022-08-19T13:25:34;5.63;;;2.85;;
72501;SDS011;60524;49.874;8.652;2022-08-19T13:28:01;9.23;;;3.28;;
72501;SDS011;60524;49.874;8.652;2022-08-19T13:30:26;5.60;;;3.33;;
72501;SDS011;60524;49.874;8.652;2022-08-19T13:33:10;4.07;;;2.75;;
72501;SDS011;60524;49.874;8.652;2022-08-19T13:35:40;6.93;;;2.72;;
72501;SDS011;60524;49.874;8.652;2022-08-19T13:38:08;3.20;;;2.60;;
72501;SDS011;60524;49.874;8.652;2022-08-19T13:40:34;5.55;;;3.05;;
72501;SDS011;60524;49.874;8.652;2022-08-19T13:43:00;4.72;;;2.92;;
72501;SDS011;60524;49.874;8.652;2022-08-19T13:45:26;3.20;;;2.70;;
72501;SDS011;60524;49.874;8.652;2022-08-19T13:47:53;3.80;;;2.78;;
72501;SDS011;60524;49.874;8.652;2022-08-19T13:50:22;5.78;;;2.70;;
72501;SDS011;60524;49.874;8.652;2022-08-19T13:52:52;3.80;;;2.92;;
72501;SDS011;60524;49.874;8.652;2022-08-19T13:55:18;4.72;;;3.00;;
72501;SDS011;60524;49.874;8.652;2022-08-19T13:57:44;3.85;;;2.70;;
72501;SDS011;60524;49.874;8.652;2022-08-19T14:00:13;3.47;;;2.78;;
72501;SDS011;60524;49.874;8.652;2022-08-19T14:02:42;4.43;;;2.67;;
72501;SDS011;60524;49.874;8.652;2022-08-19T14:05:09;5.82;;;2.80;;
72501;SDS011;60524;49.874;8.652;2022-08-19T14:07:36;6.68;;;2.17;;
72501;SDS011;60524;49.874;8.652;2022-08-19T14:10:02;3.47;;;2.35;;
72501;SDS011;60524;49.874;8.652;2022-08-19T14:12:29;4.72;;;2.10;;
72501;SDS011;60524;49.874;8.652;2022-08-19T14:14:55;4.35;;;2.22;;
72501;SDS011;60524;49.874;8.652;2022-08-19T14:17:21;3.80;;;2.30;;
72501;SDS011;60524;49.874;8.652;2022-08-19T14:19:46;3.58;;;2.75;;
72501;SDS011;60524;49.874;8.652;2022-08-19T14:22:12;5.40;;;2.20;;
72501;SDS011;60524;49.874;8.652;2022-08-19T14:24:37;5.50;;;2.50;;
72501;SDS011;60524;49.874;8.652;2022-08-19T14:27:06;5.25;;;2.20;;
72501;SDS011;60524;49.874;8.652;2022-08-19T14:29:31;4.22;;;2.40;;
72501;SDS011;60524;49.874;8.652;2022-08-19T14:31:57;3.28;;;2.30;;
72501;SDS011;60524;49.874;8.652;2022-08-19T14:34:24;4.20;;;2.30;;
72501;SDS011;60524;49.874;8.652;2022-08-19T14:36:50;6.60;;;2.75;;
72501;SDS011;60524;49.874;8.652;2022-08-19T14:39:15;8.70;;;2.63;;
72501;SDS011;60524;49.874;8.652;2022-08-19T14:41:41;5.53;;;2.30;;
72501;SDS011;60524;49.874;8.652;2022-08-19T14:44:11;3.00;;;2.13;;
72501;SDS011;60524;49.874;8.652;2022-08-19T14:46:37;4.93;;;2.40;;
72501;SDS011;60524;49.874;8.652;2022-08-19T14:49:03;4.78;;;2.97;;
72501;SDS011;60524;49.874;8.652;2022-08-19T14:51:29;4.22;;;2.40;;
72501;SDS011;60524;49.874;8.652;2022-08-19T14:53:55;7.20;;;2.40;;
72501;SDS011;60524;49.874;8.652;2022-08-19T14:56:21;4.72;;;2.25;;
72501;SDS011;60524;49.874;8.652;2022-08-19T14:58:48;4.57;;;2.20;;
72501;SDS011;60524;49.874;8.652;2022-08-19T15:01:16;7.55;;;2.67;;
72501;SDS011;60524;49.874;8.652;2022-08-19T15:03:44;4.18;;;2.70;;
72501;SDS011;60524;49.874;8.652;2022-08-19T15:06:10;4.13;;;2.42;;
72501;SDS011;60524;49.874;8.652;2022-08-19T15:08:36;5.73;;;2.40;;
72501;SDS011;60524;49.874;8.652;2022-08-19T15:11:06;4.13;;;2.47;;
72501;SDS011;60524;49.874;8.652;2022-08-19T15:13:34;4.80;;;2.72;;